sensor_id;sensor_type;location;lat;lon;timestamp;P1;durP1;ratioP1;P2;durP2;ratioP2
6499;SDS011;3283;52.330;9.772;2024-03-08T00:01:59;20.10;;;11.13;;
6499;SDS011;3283;52.330;9.772;2024-03-08T00:04:25;22.97;;;12.37;;
6499;SDS011;3283;52.330;9.772;2024-03-08T00:06:50;22.27;;;13.03;;
6499;SDS011;3283;52.330;9.772;2024-03-08T00:09:16;20.47;;;11.60;;
6499;SDS011;3283;52.330;9.772;2024-03-08T00:11:41;22.50;;;12.13;;
6499;SDS011;3283;52.330;9.772;2024-03-08T00:14:06;19.10;;;13.00;;
6499;SDS011;3283;52.330;9.772;2024-03-08T00:16:33;16.00;;;11.57;;
6499;SDS011;3283;52.330;9.772;2024-03-08T00:18:59;21.97;;;13.00;;
6499;SDS011;3283;52.330;9.772;2024-03-08T00:21:24;21.57;;;12.93;;
6499;SDS011;3283;52.330;9.772;2024-03-08T00:23:49;25.03;;;13.00;;
6499;SDS011;3283;52.330;9.772;2024-03-08T00:26:15;23.57;;;13.47;;
6499;SDS011;3283;52.330;9.772;2024-03-08T00:28:40;21.73;;;12.77;;
6499;SDS011;3283;52.330;9.772;2024-03-08T00:31:05;19.30;;;13.30;;
6499;SDS011;3283;52.330;9.772;2024-03-08T00:33:32;23.80;;;13.70;;
6499;SDS011;3283;52.330;9.772;2024-03-08T00:35:57;20.37;;;12.40;;
6499;SDS011;3283;52.330;9.772;2024-03-08T00:38:23;21.87;;;14.27;;
6499;SDS011;3283;52.330;9.772;2024-03-08T00:40:48;17.00;;;12.37;;
6499;SDS011;3283;52.330;9.772;2024-03-08T00:43:13;21.23;;;12.57;;
6499;SDS011;3283;52.330;9.772;2024-03-08T00:45:40;23.43;;;13.83;;
6499;SDS011;3283;52.330;9.772;2024-03-08T00:48:07;19.03;;;14.13;;
6499;SDS011;3283;52.330;9.772;2024-03-08T00:50:33;22.67;;;13.77;;
6499;SDS011;3283;52.330;9.772;2024-03-08T00:52:59;19.30;;;13.53;;
6499;SDS011;3283;52.330;9.772;2024-03-08T00:55:25;20.93;;;13.83;;
6499;SDS011;3283;52.330;9.772;2024-03-08T00:57:50;25.80;;;15.10;;
6499;SDS011;3283;52.330;9.772;2024-03-08T01:00:16;21.30;;;12.90;;
6499;SDS011;3283;52.330;9.772;2024-03-08T01:02:42;19.87;;;14.07;;
6499;SDS011;3283;52.330;9.772;2024-03-08T01:05:07;25.57;;;14.27;;
6499;SDS011;3283;52.330;9.772;2024-03-08T01:07:34;23.13;;;14.43;;
6499;SDS011;3283;52.330;9.772;2024-03-08T01:10:00;20.83;;;13.90;;
6499;SDS011;3283;52.330;9.772;2024-03-08T01:12:29;27.10;;;14.23;;
6499;SDS011;3283;52.330;9.772;2024-03-08T01:14:55;21.07;;;13.73;;
6499;SDS011;3283;52.330;9.772;2024-03-08T01:17:20;25.30;;;14.97;;
6499;SDS011;3283;52.330;9.772;2024-03-08T01:19:46;21.63;;;13.47;;
6499;SDS011;3283;52.330;9.772;2024-03-08T01:22:12;21.93;;;14.13;;
6499;SDS011;3283;52.330;9.772;2024-03-08T01:24:38;20.27;;;12.47;;
6499;SDS011;3283;52.330;9.772;2024-03-08T01:27:03;27.43;;;14.23;;
6499;SDS011;3283;52.330;9.772;2024-03-08T01:29:29;21.03;;;13.67;;
6499;SDS011;3283;52.330;9.772;2024-03-08T01:31:55;22.30;;;14.40;;
6499;SDS011;3283;52.330;9.772;2024-03-08T01:34:21;19.80;;;13.93;;
6499;SDS011;3283;52.330;9.772;2024-03-08T01:36:47;25.00;;;14.83;;
6499;SDS011;3283;52.330;9.772;2024-03-08T01:39:13;26.73;;;15.00;;
6499;SDS011;3283;52.330;9.772;2024-03-08T01:41:39;23.40;;;13.50;;
6499;SDS011;3283;52.330;9.772;2024-03-08T01:44:05;20.77;;;13.30;;
6499;SDS011;3283;52.330;9.772;2024-03-08T01:46:32;23.73;;;15.80;;
6499;SDS011;3283;52.330;9.772;2024-03-08T01:48:58;27.40;;;15.10;;
6499;SDS011;3283;52.330;9.772;2024-03-08T01:51:25;28.07;;;15.17;;
6499;SDS011;3283;52.330;9.772;2024-03-08T01:53:51;22.23;;;15.00;;
6499;SDS011;3283;52.330;9.772;2024-03-08T01:56:17;30.77;;;16.20;;
6499;SDS011;3283;52.330;9.772;2024-03-08T01:58:43;22.50;;;14.47;;
6499;SDS011;3283;52.330;9.772;2024-03-08T02:01:09;24.13;;;15.13;;
6499;SDS011;3283;52.330;9.772;2024-03-08T02:03:37;19.37;;;13.43;;
6499;SDS011;3283;52.330;9.772;2024-03-08T02:06:02;24.07;;;14.00;;
6499;SDS011;3283;52.330;9.772;2024-03-08T02:08:30;23.20;;;14.20;;
6499;SDS011;3283;52.330;9.772;2024-03-08T02:10:56;28.13;;;14.03;;
6499;SDS011;3283;52.330;9.772;2024-03-08T02:13:22;21.20;;;13.77;;
6499;SDS011;3283;52.330;9.772;2024-03-08T02:18:15;24.00;;;13.93;;
6499;SDS011;3283;52.330;9.772;2024-03-08T02:20:42;22.73;;;15.30;;
6499;SDS011;3283;52.330;9.772;2024-03-08T02:23:08;26.63;;;13.50;;
6499;SDS011;3283;52.330;9.772;2024-03-08T02:25:33;21.33;;;13.63;;
6499;SDS011;3283;52.330;9.772;2024-03-08T02:28:00;24.47;;;13.47;;
6499;SDS011;3283;52.330;9.772;2024-03-08T02:30:25;21.40;;;13.10;;
6499;SDS011;3283;52.330;9.772;2024-03-08T02:32:54;25.17;;;13.70;;
6499;SDS011;3283;52.330;9.772;2024-03-08T02:35:20;20.07;;;13.00;;
6499;SDS011;3283;52.330;9.772;2024-03-08T02:37:46;23.67;;;14.27;;
6499;SDS011;3283;52.330;9.772;2024-03-08T02:40:13;28.83;;;15.23;;
6499;SDS011;3283;52.330;9.772;2024-03-08T02:42:38;20.83;;;14.13;;
6499;SDS011;3283;52.330;9.772;2024-03-08T02:45:04;31.93;;;15.43;;
6499;SDS011;3283;52.330;9.772;2024-03-08T02:47:30;21.10;;;14.00;;
6499;SDS011;3283;52.330;9.772;2024-03-08T02:49:56;23.43;;;14.33;;
6499;SDS011;3283;52.330;9.772;2024-03-08T02:52:22;22.70;;;14.63;;
6499;SDS011;3283;52.330;9.772;2024-03-08T02:54:47;42.03;;;15.30;;
6499;SDS011;3283;52.330;9.772;2024-03-08T02:57:13;24.33;;;14.63;;
6499;SDS011;3283;52.330;9.772;2024-03-08T02:59:40;29.17;;;14.60;;
6499;SDS011;3283;52.330;9.772;2024-03-08T03:02:05;25.00;;;14.50;;
6499;SDS011;3283;52.330;9.772;2024-03-08T03:04:31;28.17;;;14.60;;
6499;SDS011;3283;52.330;9.772;2024-03-08T03:06:59;32.57;;;15.17;;
6499;SDS011;3283;52.330;9.772;2024-03-08T03:09:25;31.30;;;13.90;;
6499;SDS011;3283;52.330;9.772;2024-03-08T03:11:55;22.30;;;14.47;;
6499;SDS011;3283;52.330;9.772;2024-03-08T03:14:21;28.13;;;13.87;;
6499;SDS011;3283;52.330;9.772;2024-03-08T03:16:47;21.87;;;14.33;;
6499;SDS011;3283;52.330;9.772;2024-03-08T03:19:12;23.73;;;14.50;;
6499;SDS011;3283;52.330;9.772;2024-03-08T03:21:38;27.87;;;15.20;;
6499;SDS011;3283;52.330;9.772;2024-03-08T03:24:04;23.73;;;14.90;;
6499;SDS011;3283;52.330;9.772;2024-03-08T03:26:35;24.10;;;14.40;;
6499;SDS011;3283;52.330;9.772;2024-03-08T03:29:04;24.40;;;14.07;;
6499;SDS011;3283;52.330;9.772;2024-03-08T03:31:33;25.50;;;15.03;;
6499;SDS011;3283;52.330;9.772;2024-03-08T03:33:59;23.07;;;16.13;;
6499;SDS011;3283;52.330;9.772;2024-03-08T03:36:27;24.83;;;14.40;;
6499;SDS011;3283;52.330;9.772;2024-03-08T03:38:53;25.27;;;15.07;;
6499;SDS011;3283;52.330;9.772;2024-03-08T03:41:32;21.10;;;14.33;;
6499;SDS011;3283;52.330;9.772;2024-03-08T03:43:57;24.40;;;14.60;;
6499;SDS011;3283;52.330;9.772;2024-03-08T03:46:24;24.20;;;15.37;;
6499;SDS011;3283;52.330;9.772;2024-03-08T03:48:51;24.63;;;14.80;;
6499;SDS011;3283;52.330;9.772;2024-03-08T03:51:16;28.47;;;13.90;;
6499;SDS011;3283;52.330;9.772;2024-03-08T03:53:41;19.60;;;13.93;;
6499;SDS011;3283;52.330;9.772;2024-03-08T03:56:07;27.57;;;15.37;;
6499;SDS011;3283;52.330;9.772;2024-03-08T03:58:32;25.60;;;15.50;;
6499;SDS011;3283;52.330;9.772;2024-03-08T04:00:58;24.57;;;15.30;;
6499;SDS011;3283;52.330;9.772;2024-03-08T04:03:23;26.47;;;16.20;;
6499;SDS011;3283;52.330;9.772;2024-03-08T04:05:49;23.00;;;13.37;;
6499;SDS011;3283;52.330;9.772;2024-03-08T04:08:14;26.73;;;15.80;;
6499;SDS011;3283;52.330;9.772;2024-03-08T04:10:40;32.40;;;16.40;;
6499;SDS011;3283;52.330;9.772;2024-03-08T04:13:07;22.53;;;13.70;;
6499;SDS011;3283;52.330;9.772;2024-03-08T04:15:34;23.27;;;13.10;;
6499;SDS011;3283;52.330;9.772;2024-03-08T04:18:00;23.70;;;15.23;;
6499;SDS011;3283;52.330;9.772;2024-03-08T04:20:25;25.00;;;14.53;;
6499;SDS011;3283;52.330;9.772;2024-03-08T04:22:51;29.90;;;14.30;;
6499;SDS011;3283;52.330;9.772;2024-03-08T04:25:16;24.17;;;14.67;;
6499;SDS011;3283;52.330;9.772;2024-03-08T04:27:42;23.40;;;14.40;;
6499;SDS011;3283;52.330;9.772;2024-03-08T04:30:08;26.90;;;14.00;;
6499;SDS011;3283;52.330;9.772;2024-03-08T04:32:34;23.00;;;14.67;;
6499;SDS011;3283;52.330;9.772;2024-03-08T04:34:59;21.30;;;14.60;;
6499;SDS011;3283;52.330;9.772;2024-03-08T04:37:26;24.40;;;14.20;;
6499;SDS011;3283;52.330;9.772;2024-03-08T04:39:54;23.80;;;15.37;;
6499;SDS011;3283;52.330;9.772;2024-03-08T04:42:20;27.00;;;15.00;;
6499;SDS011;3283;52.330;9.772;2024-03-08T04:44:45;24.80;;;16.40;;
6499;SDS011;3283;52.330;9.772;2024-03-08T04:47:11;23.83;;;15.73;;
6499;SDS011;3283;52.330;9.772;2024-03-08T04:49:36;25.80;;;14.43;;
6499;SDS011;3283;52.330;9.772;2024-03-08T04:52:05;24.20;;;15.10;;
6499;SDS011;3283;52.330;9.772;2024-03-08T04:54:31;23.27;;;14.90;;
6499;SDS011;3283;52.330;9.772;2024-03-08T04:56:57;27.77;;;16.20;;
6499;SDS011;3283;52.330;9.772;2024-03-08T04:59:25;27.37;;;16.40;;
6499;SDS011;3283;52.330;9.772;2024-03-08T05:01:51;24.57;;;15.23;;
6499;SDS011;3283;52.330;9.772;2024-03-08T05:04:17;20.60;;;14.40;;
6499;SDS011;3283;52.330;9.772;2024-03-08T05:06:42;26.53;;;15.10;;
6499;SDS011;3283;52.330;9.772;2024-03-08T05:09:08;25.20;;;15.30;;
6499;SDS011;3283;52.330;9.772;2024-03-08T05:11:41;25.23;;;15.50;;
6499;SDS011;3283;52.330;9.772;2024-03-08T05:14:07;25.93;;;13.50;;
6499;SDS011;3283;52.330;9.772;2024-03-08T05:16:33;24.40;;;15.20;;
6499;SDS011;3283;52.330;9.772;2024-03-08T05:18:59;30.03;;;16.80;;
6499;SDS011;3283;52.330;9.772;2024-03-08T05:21:24;22.17;;;13.90;;
6499;SDS011;3283;52.330;9.772;2024-03-08T05:23:50;31.40;;;14.07;;
6499;SDS011;3283;52.330;9.772;2024-03-08T05:26:16;24.67;;;15.60;;
6499;SDS011;3283;52.330;9.772;2024-03-08T05:28:42;26.27;;;16.63;;
6499;SDS011;3283;52.330;9.772;2024-03-08T05:31:07;25.33;;;15.20;;
6499;SDS011;3283;52.330;9.772;2024-03-08T05:33:33;27.17;;;15.80;;
6499;SDS011;3283;52.330;9.772;2024-03-08T05:35:59;24.53;;;15.70;;
6499;SDS011;3283;52.330;9.772;2024-03-08T05:38:27;25.73;;;14.60;;
6499;SDS011;3283;52.330;9.772;2024-03-08T05:40:53;25.57;;;14.97;;
6499;SDS011;3283;52.330;9.772;2024-03-08T05:43:19;30.10;;;17.17;;
6499;SDS011;3283;52.330;9.772;2024-03-08T05:45:45;28.50;;;16.17;;
6499;SDS011;3283;52.330;9.772;2024-03-08T05:48:11;26.23;;;15.10;;
6499;SDS011;3283;52.330;9.772;2024-03-08T05:50:37;25.47;;;15.80;;
6499;SDS011;3283;52.330;9.772;2024-03-08T05:53:03;32.10;;;16.57;;
6499;SDS011;3283;52.330;9.772;2024-03-08T05:55:32;29.07;;;17.50;;
6499;SDS011;3283;52.330;9.772;2024-03-08T05:58:00;27.67;;;16.67;;
6499;SDS011;3283;52.330;9.772;2024-03-08T06:00:26;23.50;;;15.30;;
6499;SDS011;3283;52.330;9.772;2024-03-08T06:02:52;29.83;;;15.63;;
6499;SDS011;3283;52.330;9.772;2024-03-08T06:05:17;26.87;;;17.00;;
6499;SDS011;3283;52.330;9.772;2024-03-08T06:07:43;27.40;;;16.90;;
6499;SDS011;3283;52.330;9.772;2024-03-08T06:10:09;22.33;;;15.67;;
6499;SDS011;3283;52.330;9.772;2024-03-08T06:12:35;26.40;;;16.60;;
6499;SDS011;3283;52.330;9.772;2024-03-08T06:15:08;26.70;;;16.87;;
6499;SDS011;3283;52.330;9.772;2024-03-08T06:17:34;25.40;;;16.47;;
6499;SDS011;3283;52.330;9.772;2024-03-08T06:20:01;28.27;;;17.40;;
6499;SDS011;3283;52.330;9.772;2024-03-08T06:22:26;24.30;;;15.77;;
6499;SDS011;3283;52.330;9.772;2024-03-08T06:24:53;25.10;;;16.80;;
6499;SDS011;3283;52.330;9.772;2024-03-08T06:27:19;25.27;;;16.50;;
6499;SDS011;3283;52.330;9.772;2024-03-08T06:29:45;29.57;;;18.07;;
6499;SDS011;3283;52.330;9.772;2024-03-08T06:32:10;29.87;;;17.70;;
6499;SDS011;3283;52.330;9.772;2024-03-08T06:34:36;22.87;;;17.03;;
6499;SDS011;3283;52.330;9.772;2024-03-08T06:37:01;22.87;;;15.70;;
6499;SDS011;3283;52.330;9.772;2024-03-08T06:39:27;40.13;;;18.83;;
6499;SDS011;3283;52.330;9.772;2024-03-08T06:41:56;26.87;;;17.93;;
6499;SDS011;3283;52.330;9.772;2024-03-08T06:44:22;29.20;;;17.23;;
6499;SDS011;3283;52.330;9.772;2024-03-08T06:46:47;30.27;;;18.30;;
6499;SDS011;3283;52.330;9.772;2024-03-08T06:49:13;35.00;;;17.83;;
6499;SDS011;3283;52.330;9.772;2024-03-08T06:51:40;25.60;;;15.60;;
6499;SDS011;3283;52.330;9.772;2024-03-08T06:54:06;28.30;;;17.60;;
6499;SDS011;3283;52.330;9.772;2024-03-08T06:56:34;26.77;;;18.43;;
6499;SDS011;3283;52.330;9.772;2024-03-08T06:59:00;28.70;;;17.80;;
6499;SDS011;3283;52.330;9.772;2024-03-08T07:01:25;35.23;;;21.13;;
6499;SDS011;3283;52.330;9.772;2024-03-08T07:03:50;28.63;;;17.40;;
6499;SDS011;3283;52.330;9.772;2024-03-08T07:06:17;25.63;;;16.23;;
6499;SDS011;3283;52.330;9.772;2024-03-08T07:08:44;31.73;;;19.20;;
6499;SDS011;3283;52.330;9.772;2024-03-08T07:11:11;32.43;;;16.67;;
6499;SDS011;3283;52.330;9.772;2024-03-08T07:13:37;32.40;;;18.77;;
6499;SDS011;3283;52.330;9.772;2024-03-08T07:16:04;24.37;;;16.80;;
6499;SDS011;3283;52.330;9.772;2024-03-08T07:18:30;26.80;;;17.00;;
6499;SDS011;3283;52.330;9.772;2024-03-08T07:20:56;25.93;;;17.37;;
6499;SDS011;3283;52.330;9.772;2024-03-08T07:23:22;27.20;;;18.43;;
6499;SDS011;3283;52.330;9.772;2024-03-08T07:26:06;25.30;;;16.77;;
6499;SDS011;3283;52.330;9.772;2024-03-08T07:28:34;36.27;;;19.20;;
6499;SDS011;3283;52.330;9.772;2024-03-08T07:31:00;28.03;;;18.10;;
6499;SDS011;3283;52.330;9.772;2024-03-08T07:33:49;22.57;;;15.47;;
6499;SDS011;3283;52.330;9.772;2024-03-08T07:36:15;27.67;;;17.07;;
6499;SDS011;3283;52.330;9.772;2024-03-08T07:38:40;29.23;;;17.50;;
6499;SDS011;3283;52.330;9.772;2024-03-08T07:41:06;31.00;;;17.57;;
6499;SDS011;3283;52.330;9.772;2024-03-08T07:43:31;28.00;;;18.97;;
6499;SDS011;3283;52.330;9.772;2024-03-08T07:45:57;29.50;;;17.70;;
6499;SDS011;3283;52.330;9.772;2024-03-08T07:48:23;25.10;;;17.50;;
6499;SDS011;3283;52.330;9.772;2024-03-08T07:50:49;28.40;;;17.57;;
6499;SDS011;3283;52.330;9.772;2024-03-08T07:53:15;26.07;;;16.70;;
6499;SDS011;3283;52.330;9.772;2024-03-08T07:55:40;28.33;;;17.40;;
6499;SDS011;3283;52.330;9.772;2024-03-08T07:58:07;26.53;;;15.73;;
6499;SDS011;3283;52.330;9.772;2024-03-08T08:00:35;24.63;;;16.07;;
6499;SDS011;3283;52.330;9.772;2024-03-08T08:03:02;26.03;;;16.63;;
6499;SDS011;3283;52.330;9.772;2024-03-08T08:05:28;24.87;;;15.73;;
6499;SDS011;3283;52.330;9.772;2024-03-08T08:07:54;29.00;;;17.53;;
6499;SDS011;3283;52.330;9.772;2024-03-08T08:10:19;29.07;;;17.60;;
6499;SDS011;3283;52.330;9.772;2024-03-08T08:12:49;27.00;;;16.70;;
6499;SDS011;3283;52.330;9.772;2024-03-08T08:15:15;25.63;;;16.97;;
6499;SDS011;3283;52.330;9.772;2024-03-08T08:17:44;25.13;;;16.57;;
6499;SDS011;3283;52.330;9.772;2024-03-08T08:20:12;24.70;;;16.70;;
6499;SDS011;3283;52.330;9.772;2024-03-08T08:22:38;25.80;;;16.53;;
6499;SDS011;3283;52.330;9.772;2024-03-08T08:25:05;26.63;;;17.97;;
6499;SDS011;3283;52.330;9.772;2024-03-08T08:27:31;26.20;;;18.23;;
6499;SDS011;3283;52.330;9.772;2024-03-08T08:29:56;24.57;;;17.70;;
6499;SDS011;3283;52.330;9.772;2024-03-08T08:32:22;27.47;;;16.67;;
6499;SDS011;3283;52.330;9.772;2024-03-08T08:34:47;24.80;;;16.10;;
6499;SDS011;3283;52.330;9.772;2024-03-08T08:37:13;26.90;;;17.40;;
6499;SDS011;3283;52.330;9.772;2024-03-08T08:39:39;26.20;;;16.47;;
6499;SDS011;3283;52.330;9.772;2024-03-08T08:42:04;37.67;;;19.60;;
6499;SDS011;3283;52.330;9.772;2024-03-08T08:44:30;31.37;;;16.30;;
6499;SDS011;3283;52.330;9.772;2024-03-08T08:46:56;25.77;;;16.87;;
6499;SDS011;3283;52.330;9.772;2024-03-08T08:49:22;28.17;;;17.90;;
6499;SDS011;3283;52.330;9.772;2024-03-08T08:51:51;27.90;;;16.87;;
6499;SDS011;3283;52.330;9.772;2024-03-08T08:54:18;29.00;;;17.00;;
6499;SDS011;3283;52.330;9.772;2024-03-08T08:56:44;29.17;;;17.07;;
6499;SDS011;3283;52.330;9.772;2024-03-08T08:59:09;25.83;;;17.33;;
6499;SDS011;3283;52.330;9.772;2024-03-08T09:01:38;27.50;;;16.63;;
6499;SDS011;3283;52.330;9.772;2024-03-08T09:04:07;25.90;;;16.10;;
6499;SDS011;3283;52.330;9.772;2024-03-08T09:06:33;25.73;;;18.33;;
6499;SDS011;3283;52.330;9.772;2024-03-08T09:08:59;31.20;;;16.97;;
6499;SDS011;3283;52.330;9.772;2024-03-08T09:11:24;26.23;;;16.80;;
6499;SDS011;3283;52.330;9.772;2024-03-08T09:13:52;23.50;;;16.47;;
6499;SDS011;3283;52.330;9.772;2024-03-08T09:16:18;24.30;;;16.13;;
6499;SDS011;3283;52.330;9.772;2024-03-08T09:18:43;31.70;;;18.13;;
6499;SDS011;3283;52.330;9.772;2024-03-08T09:21:09;26.90;;;18.43;;
6499;SDS011;3283;52.330;9.772;2024-03-08T09:23:35;31.97;;;18.40;;
6499;SDS011;3283;52.330;9.772;2024-03-08T09:26:01;27.60;;;18.20;;
6499;SDS011;3283;52.330;9.772;2024-03-08T09:28:28;27.20;;;17.37;;
6499;SDS011;3283;52.330;9.772;2024-03-08T09:30:54;24.93;;;17.57;;
6499;SDS011;3283;52.330;9.772;2024-03-08T09:33:20;25.13;;;16.40;;
6499;SDS011;3283;52.330;9.772;2024-03-08T09:35:46;27.73;;;18.97;;
6499;SDS011;3283;52.330;9.772;2024-03-08T09:38:13;21.00;;;15.73;;
6499;SDS011;3283;52.330;9.772;2024-03-08T09:40:40;25.47;;;16.70;;
6499;SDS011;3283;52.330;9.772;2024-03-08T09:43:06;23.93;;;15.00;;
6499;SDS011;3283;52.330;9.772;2024-03-08T09:45:32;29.60;;;18.27;;
6499;SDS011;3283;52.330;9.772;2024-03-08T09:48:01;33.53;;;17.87;;
6499;SDS011;3283;52.330;9.772;2024-03-08T09:50:27;23.83;;;15.83;;
6499;SDS011;3283;52.330;9.772;2024-03-08T09:52:54;28.03;;;18.30;;
6499;SDS011;3283;52.330;9.772;2024-03-08T09:55:22;37.73;;;17.40;;
6499;SDS011;3283;52.330;9.772;2024-03-08T09:57:47;23.07;;;16.33;;
6499;SDS011;3283;52.330;9.772;2024-03-08T10:00:33;24.40;;;16.77;;
6499;SDS011;3283;52.330;9.772;2024-03-08T10:03:02;26.80;;;16.60;;
6499;SDS011;3283;52.330;9.772;2024-03-08T10:05:28;24.07;;;16.87;;
6499;SDS011;3283;52.330;9.772;2024-03-08T10:07:57;27.00;;;17.50;;
6499;SDS011;3283;52.330;9.772;2024-03-08T10:10:23;27.67;;;17.07;;
6499;SDS011;3283;52.330;9.772;2024-03-08T10:12:49;23.87;;;17.30;;
6499;SDS011;3283;52.330;9.772;2024-03-08T10:15:15;25.37;;;17.43;;
6499;SDS011;3283;52.330;9.772;2024-03-08T10:17:41;20.43;;;15.73;;
6499;SDS011;3283;52.330;9.772;2024-03-08T10:20:17;22.83;;;17.00;;
6499;SDS011;3283;52.330;9.772;2024-03-08T10:22:44;23.60;;;16.03;;
6499;SDS011;3283;52.330;9.772;2024-03-08T10:25:10;26.60;;;17.40;;
6499;SDS011;3283;52.330;9.772;2024-03-08T10:27:39;23.37;;;16.50;;
6499;SDS011;3283;52.330;9.772;2024-03-08T10:30:10;26.67;;;15.87;;
6499;SDS011;3283;52.330;9.772;2024-03-08T10:32:39;34.73;;;17.93;;
6499;SDS011;3283;52.330;9.772;2024-03-08T10:35:06;29.00;;;17.83;;
6499;SDS011;3283;52.330;9.772;2024-03-08T10:37:33;24.57;;;16.80;;
6499;SDS011;3283;52.330;9.772;2024-03-08T10:40:09;28.40;;;17.43;;
6499;SDS011;3283;52.330;9.772;2024-03-08T10:42:41;23.40;;;16.53;;
6499;SDS011;3283;52.330;9.772;2024-03-08T10:47:49;28.30;;;19.40;;
6499;SDS011;3283;52.330;9.772;2024-03-08T10:50:18;26.13;;;17.53;;
6499;SDS011;3283;52.330;9.772;2024-03-08T10:52:51;25.40;;;17.30;;
6499;SDS011;3283;52.330;9.772;2024-03-08T10:55:17;28.40;;;18.00;;
6499;SDS011;3283;52.330;9.772;2024-03-08T10:57:46;29.57;;;18.70;;
6499;SDS011;3283;52.330;9.772;2024-03-08T11:00:14;24.00;;;16.30;;
6499;SDS011;3283;52.330;9.772;2024-03-08T11:02:44;22.07;;;16.17;;
6499;SDS011;3283;52.330;9.772;2024-03-08T11:05:10;25.70;;;16.67;;
6499;SDS011;3283;52.330;9.772;2024-03-08T11:07:42;23.80;;;16.40;;
6499;SDS011;3283;52.330;9.772;2024-03-08T11:10:18;26.20;;;17.23;;
6499;SDS011;3283;52.330;9.772;2024-03-08T11:12:44;24.10;;;15.40;;
6499;SDS011;3283;52.330;9.772;2024-03-08T11:15:11;25.37;;;17.10;;
6499;SDS011;3283;52.330;9.772;2024-03-08T11:20:08;29.60;;;16.10;;
6499;SDS011;3283;52.330;9.772;2024-03-08T11:22:41;22.40;;;16.70;;
6499;SDS011;3283;52.330;9.772;2024-03-08T11:25:15;21.27;;;16.13;;
6499;SDS011;3283;52.330;9.772;2024-03-08T11:33:23;23.30;;;16.77;;
6499;SDS011;3283;52.330;9.772;2024-03-08T11:35:51;22.97;;;17.30;;
6499;SDS011;3283;52.330;9.772;2024-03-08T11:38:17;23.10;;;16.57;;
6499;SDS011;3283;52.330;9.772;2024-03-08T11:40:45;26.70;;;16.23;;
6499;SDS011;3283;52.330;9.772;2024-03-08T11:43:15;26.00;;;16.47;;
6499;SDS011;3283;52.330;9.772;2024-03-08T11:45:41;23.23;;;15.93;;
6499;SDS011;3283;52.330;9.772;2024-03-08T11:48:07;23.80;;;17.13;;
6499;SDS011;3283;52.330;9.772;2024-03-08T11:50:32;23.10;;;15.00;;
6499;SDS011;3283;52.330;9.772;2024-03-08T11:53:04;26.07;;;15.93;;
6499;SDS011;3283;52.330;9.772;2024-03-08T11:55:31;25.37;;;15.73;;
6499;SDS011;3283;52.330;9.772;2024-03-08T11:58:04;22.47;;;14.40;;
6499;SDS011;3283;52.330;9.772;2024-03-08T12:00:30;27.20;;;16.00;;
6499;SDS011;3283;52.330;9.772;2024-03-08T12:03:06;24.37;;;15.03;;
6499;SDS011;3283;52.330;9.772;2024-03-08T12:05:34;30.67;;;15.97;;
6499;SDS011;3283;52.330;9.772;2024-03-08T12:08:01;22.57;;;15.43;;
6499;SDS011;3283;52.330;9.772;2024-03-08T12:10:27;23.70;;;14.90;;
6499;SDS011;3283;52.330;9.772;2024-03-08T12:12:53;26.57;;;15.33;;
6499;SDS011;3283;52.330;9.772;2024-03-08T12:15:24;25.70;;;13.80;;
6499;SDS011;3283;52.330;9.772;2024-03-08T12:17:50;25.00;;;15.13;;
6499;SDS011;3283;52.330;9.772;2024-03-08T12:20:17;34.50;;;16.20;;
6499;SDS011;3283;52.330;9.772;2024-03-08T12:22:51;22.43;;;14.07;;
6499;SDS011;3283;52.330;9.772;2024-03-08T12:25:18;20.47;;;13.80;;
6499;SDS011;3283;52.330;9.772;2024-03-08T12:27:45;20.90;;;14.80;;
6499;SDS011;3283;52.330;9.772;2024-03-08T12:30:18;27.03;;;15.77;;
6499;SDS011;3283;52.330;9.772;2024-03-08T12:32:57;20.53;;;14.83;;
6499;SDS011;3283;52.330;9.772;2024-03-08T12:35:24;24.87;;;16.43;;
6499;SDS011;3283;52.330;9.772;2024-03-08T12:37:58;22.30;;;15.03;;
6499;SDS011;3283;52.330;9.772;2024-03-08T12:40:32;23.13;;;14.50;;
6499;SDS011;3283;52.330;9.772;2024-03-08T12:42:59;19.60;;;13.60;;
6499;SDS011;3283;52.330;9.772;2024-03-08T12:45:26;20.20;;;12.50;;
6499;SDS011;3283;52.330;9.772;2024-03-08T12:47:52;27.00;;;14.67;;
6499;SDS011;3283;52.330;9.772;2024-03-08T12:50:22;22.97;;;15.57;;
6499;SDS011;3283;52.330;9.772;2024-03-08T12:52:49;24.03;;;15.40;;
6499;SDS011;3283;52.330;9.772;2024-03-08T12:55:15;24.30;;;14.30;;
6499;SDS011;3283;52.330;9.772;2024-03-08T12:57:41;17.93;;;13.70;;
6499;SDS011;3283;52.330;9.772;2024-03-08T13:00:07;20.50;;;13.20;;
6499;SDS011;3283;52.330;9.772;2024-03-08T13:02:38;17.77;;;13.63;;
6499;SDS011;3283;52.330;9.772;2024-03-08T13:05:04;18.27;;;13.20;;
6499;SDS011;3283;52.330;9.772;2024-03-08T13:07:30;22.40;;;14.80;;
6499;SDS011;3283;52.330;9.772;2024-03-08T13:09:57;22.87;;;14.90;;
6499;SDS011;3283;52.330;9.772;2024-03-08T13:12:24;20.80;;;14.90;;
6499;SDS011;3283;52.330;9.772;2024-03-08T13:14:50;22.90;;;15.53;;
6499;SDS011;3283;52.330;9.772;2024-03-08T13:17:16;23.60;;;14.27;;
6499;SDS011;3283;52.330;9.772;2024-03-08T13:19:43;24.27;;;15.07;;
6499;SDS011;3283;52.330;9.772;2024-03-08T13:22:09;21.03;;;15.63;;
6499;SDS011;3283;52.330;9.772;2024-03-08T13:24:41;22.63;;;14.43;;
6499;SDS011;3283;52.330;9.772;2024-03-08T13:27:09;25.13;;;16.23;;
6499;SDS011;3283;52.330;9.772;2024-03-08T13:29:50;22.27;;;16.27;;
6499;SDS011;3283;52.330;9.772;2024-03-08T13:32:16;23.20;;;14.47;;
6499;SDS011;3283;52.330;9.772;2024-03-08T13:34:43;22.77;;;15.80;;
6499;SDS011;3283;52.330;9.772;2024-03-08T13:37:13;24.33;;;15.47;;
6499;SDS011;3283;52.330;9.772;2024-03-08T13:39:41;20.80;;;15.07;;
6499;SDS011;3283;52.330;9.772;2024-03-08T13:42:15;26.47;;;15.70;;
6499;SDS011;3283;52.330;9.772;2024-03-08T13:44:45;21.97;;;14.67;;
6499;SDS011;3283;52.330;9.772;2024-03-08T13:47:12;21.60;;;14.83;;
6499;SDS011;3283;52.330;9.772;2024-03-08T13:49:38;19.73;;;14.77;;
6499;SDS011;3283;52.330;9.772;2024-03-08T13:52:04;19.13;;;14.60;;
6499;SDS011;3283;52.330;9.772;2024-03-08T13:54:30;22.47;;;14.80;;
6499;SDS011;3283;52.330;9.772;2024-03-08T13:56:56;18.70;;;13.80;;
6499;SDS011;3283;52.330;9.772;2024-03-08T13:59:25;19.17;;;13.97;;
6499;SDS011;3283;52.330;9.772;2024-03-08T14:01:54;18.47;;;13.40;;
6499;SDS011;3283;52.330;9.772;2024-03-08T14:04:19;19.30;;;12.93;;
6499;SDS011;3283;52.330;9.772;2024-03-08T14:06:45;18.73;;;14.03;;
6499;SDS011;3283;52.330;9.772;2024-03-08T14:09:11;18.70;;;14.13;;
6499;SDS011;3283;52.330;9.772;2024-03-08T14:11:45;18.50;;;13.37;;
6499;SDS011;3283;52.330;9.772;2024-03-08T14:14:11;20.10;;;12.20;;
6499;SDS011;3283;52.330;9.772;2024-03-08T14:16:40;19.33;;;13.10;;
6499;SDS011;3283;52.330;9.772;2024-03-08T14:19:05;23.53;;;13.90;;
6499;SDS011;3283;52.330;9.772;2024-03-08T14:21:33;18.57;;;12.90;;
6499;SDS011;3283;52.330;9.772;2024-03-08T14:23:59;19.83;;;13.97;;
6499;SDS011;3283;52.330;9.772;2024-03-08T14:26:24;16.50;;;12.80;;
6499;SDS011;3283;52.330;9.772;2024-03-08T14:28:49;17.23;;;12.63;;
6499;SDS011;3283;52.330;9.772;2024-03-08T14:31:22;17.77;;;13.57;;
6499;SDS011;3283;52.330;9.772;2024-03-08T14:33:50;19.03;;;12.83;;
6499;SDS011;3283;52.330;9.772;2024-03-08T14:36:17;19.43;;;12.67;;
6499;SDS011;3283;52.330;9.772;2024-03-08T14:38:45;16.57;;;11.43;;
6499;SDS011;3283;52.330;9.772;2024-03-08T14:41:13;18.47;;;13.00;;
6499;SDS011;3283;52.330;9.772;2024-03-08T14:43:42;17.73;;;12.83;;
6499;SDS011;3283;52.330;9.772;2024-03-08T14:46:10;18.07;;;12.83;;
6499;SDS011;3283;52.330;9.772;2024-03-08T14:48:39;19.63;;;13.73;;
6499;SDS011;3283;52.330;9.772;2024-03-08T14:51:05;16.50;;;12.83;;
6499;SDS011;3283;52.330;9.772;2024-03-08T14:53:35;18.73;;;12.20;;
6499;SDS011;3283;52.330;9.772;2024-03-08T14:56:00;20.67;;;13.60;;
6499;SDS011;3283;52.330;9.772;2024-03-08T14:58:26;19.80;;;14.13;;
6499;SDS011;3283;52.330;9.772;2024-03-08T15:00:52;19.93;;;14.13;;